createdAt,value
2018-08-25T00:00:24.368Z,11.32
2018-08-25T00:02:53.312Z,11.38
2018-08-25T00:05:21.366Z,11.33
2018-08-25T00:07:49.512Z,11.36
2018-08-25T00:10:17.638Z,11.30
2018-08-25T00:12:45.767Z,11.33
2018-08-25T00:15:13.843Z,11.27
2018-08-25T00:17:41.947Z,11.19
2018-08-25T00:20:10.021Z,11.19
2018-08-25T00:22:38.125Z,11.20
2018-08-25T00:25:06.289Z,11.08
2018-08-25T00:27:34.412Z,11.13
2018-08-25T00:30:02.492Z,11.14
2018-08-25T00:32:30.663Z,11.12
2018-08-25T00:34:58.813Z,11.07
2018-08-25T00:37:26.894Z,11.18
2018-08-25T00:39:54.979Z,11.14
2018-08-25T00:42:23.131Z,11.11
2018-08-25T00:44:51.297Z,11.03
2018-08-25T00:47:19.425Z,10.98
2018-08-25T00:49:47.570Z,10.99
2018-08-25T00:52:15.731Z,10.98
2018-08-25T00:54:43.851Z,10.97
2018-08-25T00:57:12.001Z,10.99
2018-08-25T00:59:40.107Z,10.93
2018-08-25T01:02:08.228Z,10.87
2018-08-25T01:04:36.389Z,10.89
2018-08-25T01:07:04.903Z,10.82
2018-08-25T01:09:33.014Z,10.76
2018-08-25T01:12:01.127Z,10.71
2018-08-25T01:14:29.271Z,10.70
2018-08-25T01:16:57.411Z,10.59
2018-08-25T01:19:25.556Z,10.59
2018-08-25T01:21:53.701Z,10.60
2018-08-25T01:24:21.830Z,10.58
2018-08-25T01:26:49.973Z,10.56
2018-08-25T01:29:18.077Z,10.51
2018-08-25T01:31:46.180Z,10.52
2018-08-25T01:34:14.288Z,10.45
2018-08-25T01:36:42.414Z,10.41
2018-08-25T01:39:10.568Z,10.32
2018-08-25T01:41:38.729Z,10.29
2018-08-25T01:44:06.872Z,10.38
2018-08-25T01:46:35.003Z,10.35
2018-08-25T01:49:03.289Z,10.32
2018-08-25T01:51:31.409Z,10.32
2018-08-25T01:53:59.837Z,10.24
2018-08-25T01:56:27.931Z,10.06
2018-08-25T01:58:56.032Z,10.03
2018-08-25T02:01:24.979Z,10.12
2018-08-25T02:03:53.108Z,10.10
2018-08-25T02:06:21.198Z,10.04
2018-08-25T02:08:49.385Z,9.96
2018-08-25T02:11:17.621Z,9.94
2018-08-25T02:13:46.125Z,9.90
2018-08-25T02:16:14.259Z,9.88
2018-08-25T02:18:42.398Z,9.87
2018-08-25T02:21:10.552Z,9.86
2018-08-25T02:23:38.691Z,9.84
2018-08-25T02:26:06.796Z,9.87
2018-08-25T02:28:34.905Z,9.81
2018-08-25T02:31:03.052Z,9.82
2018-08-25T02:33:31.228Z,9.77
2018-08-25T02:35:59.418Z,9.79
2018-08-25T02:38:27.523Z,9.76
2018-08-25T02:40:55.630Z,9.68
2018-08-25T02:43:23.720Z,9.70
2018-08-25T02:45:51.817Z,9.68
2018-08-25T02:48:19.980Z,9.66
2018-08-25T02:50:48.077Z,9.63
2018-08-25T02:53:16.176Z,9.69
2018-08-25T02:55:44.284Z,9.66
2018-08-25T02:58:12.384Z,9.68
2018-08-25T03:00:40.528Z,9.69
2018-08-25T03:08:03.390Z,9.58
2018-08-25T03:10:31.485Z,9.59
2018-08-25T03:12:59.610Z,9.59
2018-08-25T03:15:27.716Z,9.66
2018-08-25T03:17:55.795Z,9.66
2018-08-25T03:20:23.921Z,9.64
2018-08-25T03:22:52.288Z,9.59
2018-08-25T03:25:20.368Z,9.59
2018-08-25T03:27:48.553Z,9.65
2018-08-25T03:30:16.695Z,9.61
2018-08-25T03:32:44.817Z,9.59
2018-08-25T03:35:12.951Z,9.56
2018-08-25T03:37:41.154Z,9.56
2018-08-25T03:40:09.314Z,9.50
2018-08-25T03:42:37.444Z,9.49
2018-08-25T03:45:05.626Z,9.49
2018-08-25T03:47:33.793Z,9.46
2018-08-25T03:50:02.061Z,9.61
2018-08-25T03:52:30.228Z,9.54
2018-08-25T03:54:58.353Z,9.47
2018-08-25T03:57:26.497Z,9.55
2018-08-25T03:59:54.612Z,9.52
2018-08-25T04:02:22.734Z,9.40
2018-08-25T04:04:50.912Z,9.33
2018-08-25T04:07:19.200Z,9.14
2018-08-25T04:09:47.320Z,9.11
2018-08-25T04:12:15.459Z,9.31
2018-08-25T04:14:43.650Z,9.27
2018-08-25T04:17:11.793Z,9.25
2018-08-25T04:19:39.942Z,9.23
2018-08-25T04:22:08.100Z,9.26
2018-08-25T04:24:36.237Z,9.33
2018-08-25T04:27:04.425Z,9.26
2018-08-25T04:29:32.667Z,9.25
2018-08-25T04:32:00.781Z,9.25
2018-08-25T04:34:28.880Z,9.27
2018-08-25T04:36:57.130Z,9.30
2018-08-25T04:39:25.291Z,9.32
2018-08-25T04:41:53.488Z,9.39
2018-08-25T04:44:21.614Z,9.52
2018-08-25T04:46:49.758Z,9.54
2018-08-25T04:49:17.945Z,9.57
2018-08-25T04:51:46.045Z,9.56
2018-08-25T04:54:14.241Z,9.70
2018-08-25T04:56:42.380Z,9.72
2018-08-25T04:59:10.588Z,9.68
2018-08-25T05:01:38.754Z,9.79
2018-08-25T05:04:06.896Z,9.83
2018-08-25T05:06:35.100Z,9.88
2018-08-25T05:09:03.304Z,9.88
2018-08-25T05:11:31.482Z,9.91
2018-08-25T05:13:59.644Z,9.90
2018-08-25T05:16:27.810Z,9.96
2018-08-25T05:18:55.993Z,10.07
2018-08-25T05:21:24.138Z,10.28
2018-08-25T05:23:52.366Z,10.39
2018-08-25T05:26:20.610Z,10.67
2018-08-25T05:28:48.776Z,10.88
2018-08-25T05:31:16.966Z,11.24
2018-08-25T05:33:45.136Z,11.66
2018-08-25T05:36:13.298Z,12.14
2018-08-25T05:38:41.445Z,12.43
2018-08-25T05:41:09.776Z,12.22
2018-08-25T05:43:37.921Z,12.01
2018-08-25T05:46:07.125Z,11.74
2018-08-25T05:48:35.320Z,11.86
2018-08-25T05:51:04.385Z,12.36
2018-08-25T05:53:32.512Z,12.93
2018-08-25T05:56:00.673Z,13.19
2018-08-25T05:58:28.841Z,13.77
2018-08-25T06:00:57.044Z,14.78
2018-08-25T06:03:25.136Z,15.66
2018-08-25T06:05:53.323Z,15.92
2018-08-25T06:08:21.500Z,15.43
2018-08-25T06:10:49.679Z,15.31
2018-08-25T06:13:17.826Z,15.30
2018-08-25T06:15:45.964Z,14.95
2018-08-25T06:18:14.070Z,15.11
2018-08-25T06:20:42.201Z,14.99
2018-08-25T06:23:10.397Z,14.32
2018-08-25T06:25:38.567Z,14.01
2018-08-25T06:28:06.711Z,13.54
2018-08-25T06:30:34.851Z,13.47
2018-08-25T06:33:03.003Z,13.48
2018-08-25T06:35:31.179Z,13.71
2018-08-25T06:37:59.408Z,13.71
2018-08-25T06:40:27.524Z,13.90
2018-08-25T06:42:55.730Z,13.87
2018-08-25T06:45:23.875Z,13.88
2018-08-25T06:47:51.988Z,14.13
2018-08-25T06:50:20.140Z,13.91
2018-08-25T06:52:48.285Z,13.78
2018-08-25T06:55:16.541Z,13.72
2018-08-25T06:57:44.739Z,13.83
2018-08-25T07:00:12.862Z,13.68
2018-08-25T07:02:41.030Z,13.53
2018-08-25T07:05:09.155Z,13.73
2018-08-25T07:07:37.299Z,13.70
2018-08-25T07:10:05.478Z,13.62
2018-08-25T07:12:33.590Z,13.71
2018-08-25T07:15:01.760Z,13.74
2018-08-25T07:17:29.865Z,13.84
2018-08-25T07:19:58.041Z,13.79
2018-08-25T07:22:26.192Z,13.81
2018-08-25T07:24:54.388Z,13.82
2018-08-25T07:27:22.648Z,13.52
2018-08-25T07:29:50.822Z,13.48
2018-08-25T07:32:18.995Z,13.77
2018-08-25T07:34:47.149Z,14.17
2018-08-25T07:37:15.401Z,14.61
2018-08-25T07:39:43.590Z,14.88
2018-08-25T07:42:11.755Z,14.56
2018-08-25T07:44:39.934Z,14.38
2018-08-25T07:47:08.104Z,14.78
2018-08-25T07:49:36.403Z,15.38
2018-08-25T07:52:04.625Z,15.17
2018-08-25T07:54:33.376Z,15.51
2018-08-25T07:57:01.599Z,15.34
2018-08-25T07:59:29.817Z,15.68
2018-08-25T08:01:58.097Z,15.73
2018-08-25T08:04:26.281Z,15.77
2018-08-25T08:06:54.437Z,15.98
2018-08-25T08:09:22.629Z,15.76
2018-08-25T08:11:50.890Z,15.58
2018-08-25T08:14:19.018Z,15.10
2018-08-25T08:16:47.238Z,15.11
2018-08-25T08:19:15.380Z,15.09
2018-08-25T08:21:43.541Z,15.18
2018-08-25T08:24:11.753Z,15.22
2018-08-25T08:26:39.959Z,15.32
2018-08-25T08:29:08.186Z,15.30
2018-08-25T08:31:36.345Z,15.14
2018-08-25T08:34:04.552Z,15.13
2018-08-25T08:36:32.817Z,15.20
2018-08-25T08:39:00.998Z,14.98
2018-08-25T08:41:29.160Z,14.80
2018-08-25T08:43:57.329Z,14.88
2018-08-25T08:46:30.849Z,14.68
2018-08-25T08:48:59.137Z,14.45
2018-08-25T08:51:27.424Z,14.42
2018-08-25T08:53:55.546Z,14.67
2018-08-25T08:56:23.664Z,14.67
2018-08-25T08:58:51.845Z,14.46
2018-08-25T09:01:20.099Z,14.37
2018-08-25T09:03:48.321Z,14.35
2018-08-25T09:06:16.508Z,14.15
2018-08-25T09:08:44.688Z,14.04
2018-08-25T09:11:12.885Z,14.19
2018-08-25T09:13:41.045Z,14.21
2018-08-25T09:16:09.159Z,13.89
2018-08-25T09:18:37.362Z,13.82
2018-08-25T09:21:05.596Z,13.63
2018-08-25T09:23:33.790Z,13.62
2018-08-25T09:26:01.951Z,13.59
2018-08-25T09:28:30.119Z,13.69
2018-08-25T09:30:58.338Z,13.62
2018-08-25T09:33:26.501Z,13.43
2018-08-25T09:35:54.786Z,13.64
2018-08-25T09:38:22.826Z,13.77
2018-08-25T09:40:51.017Z,13.67
2018-08-25T09:43:20.264Z,13.47
2018-08-25T09:45:49.161Z,13.50
2018-08-25T09:48:17.317Z,13.63
2018-08-25T09:50:45.463Z,13.35
2018-08-25T09:53:13.630Z,13.35
2018-08-25T09:55:41.793Z,13.13
2018-08-25T09:58:10.043Z,13.18
2018-08-25T10:00:38.372Z,13.22
2018-08-25T10:03:07.786Z,13.46
2018-08-25T10:05:35.984Z,13.98
2018-08-25T10:08:04.187Z,14.31
2018-08-25T10:10:32.347Z,14.56
2018-08-25T10:13:00.477Z,14.73
2018-08-25T10:15:28.619Z,14.43
2018-08-25T10:17:56.760Z,14.69
2018-08-25T10:20:24.912Z,14.65
2018-08-25T10:22:53.138Z,14.25
2018-08-25T10:25:21.287Z,14.23
2018-08-25T10:27:49.481Z,14.28
2018-08-25T10:30:18.237Z,14.04
2018-08-25T10:32:46.406Z,14.22
2018-08-25T10:35:14.580Z,14.46
2018-08-25T10:37:42.782Z,15.03
2018-08-25T10:40:10.941Z,15.38
2018-08-25T10:42:39.100Z,15.44
2018-08-25T10:45:08.176Z,15.33
2018-08-25T10:47:36.355Z,15.23
2018-08-25T10:50:04.566Z,14.80
2018-08-25T10:52:32.758Z,14.68
2018-08-25T10:55:00.937Z,14.73
2018-08-25T10:57:29.057Z,14.62
2018-08-25T10:59:57.221Z,14.42
2018-08-25T11:02:27.302Z,14.43
2018-08-25T11:04:55.464Z,14.37
2018-08-25T11:07:24.287Z,14.15
2018-08-25T11:09:53.309Z,13.87
2018-08-25T11:12:21.863Z,13.56
2018-08-25T11:14:50.001Z,13.58
2018-08-25T11:17:18.201Z,13.71
2018-08-25T11:19:46.355Z,13.66
2018-08-25T11:22:14.528Z,13.87
2018-08-25T11:24:42.751Z,14.21
2018-08-25T11:27:10.977Z,14.23
2018-08-25T11:29:39.108Z,14.51
2018-08-25T11:32:07.313Z,14.80
2018-08-25T11:34:35.477Z,15.04
2018-08-25T11:37:04.248Z,14.93
2018-08-25T11:39:32.436Z,14.77
2018-08-25T11:42:00.543Z,15.01
2018-08-25T11:44:28.672Z,14.87
2018-08-25T11:46:56.789Z,14.81
2018-08-25T11:49:24.917Z,14.77
2018-08-25T11:51:53.093Z,14.79
2018-08-25T11:54:21.304Z,14.61
2018-08-25T11:56:49.453Z,14.30
2018-08-25T11:59:17.649Z,13.77
2018-08-25T12:01:46.178Z,13.47
2018-08-25T12:04:14.301Z,13.20
2018-08-25T12:06:42.585Z,13.08
2018-08-25T12:09:12.422Z,12.90
2018-08-25T12:11:40.733Z,12.80
2018-08-25T12:14:08.877Z,12.73
2018-08-25T12:16:37.086Z,12.72
2018-08-25T12:19:05.230Z,12.77
2018-08-25T12:21:33.347Z,12.86
2018-08-25T12:24:01.568Z,13.09
2018-08-25T12:26:29.673Z,13.50
2018-08-25T12:28:57.823Z,13.89
2018-08-25T12:31:26.097Z,14.37
2018-08-25T12:33:54.257Z,14.66
2018-08-25T12:36:22.457Z,14.72
2018-08-25T12:38:50.575Z,14.77
2018-08-25T12:41:19.055Z,14.64
2018-08-25T13:19:33.321Z,15.68
2018-08-25T13:22:01.547Z,14.80
2018-08-25T13:24:29.762Z,14.13
2018-08-25T13:26:57.947Z,13.71
2018-08-25T13:29:26.088Z,13.61
2018-08-25T13:31:54.261Z,13.34
2018-08-25T13:34:22.453Z,13.32
2018-08-25T13:36:50.615Z,13.20
2018-08-25T13:39:18.767Z,13.00
2018-08-25T13:41:46.953Z,13.05
2018-08-25T13:44:15.245Z,12.93
2018-08-25T13:46:43.751Z,13.05
2018-08-25T13:49:11.932Z,13.16
2018-08-25T13:51:40.147Z,13.20
2018-08-25T13:54:08.433Z,13.18
2018-08-25T13:56:36.568Z,13.17
2018-08-25T13:59:04.691Z,13.12
2018-08-25T14:01:32.843Z,13.30
2018-08-25T14:04:01.060Z,13.16
2018-08-25T14:06:29.206Z,13.13
2018-08-25T14:08:57.404Z,13.13
2018-08-25T14:11:25.717Z,13.09
2018-08-25T14:13:53.928Z,13.11
2018-08-25T14:16:22.127Z,13.05
2018-08-25T14:18:50.252Z,13.10
2018-08-25T14:21:18.397Z,13.13
2018-08-25T14:23:46.555Z,13.31
2018-08-25T14:26:25.698Z,13.35
2018-08-25T14:28:55.501Z,13.48
2018-08-25T14:31:23.634Z,13.47
2018-08-25T14:33:51.809Z,13.30
2018-08-25T14:36:20.059Z,13.28
2018-08-25T14:38:48.143Z,13.27
2018-08-25T14:41:16.265Z,13.33
2018-08-25T14:43:44.440Z,13.32
2018-08-25T14:46:12.729Z,13.25
2018-08-25T14:48:40.862Z,13.25
2018-08-25T14:51:08.994Z,13.36
2018-08-25T14:53:37.184Z,13.47
2018-08-25T14:56:05.432Z,13.55
2018-08-25T14:58:33.666Z,13.62
2018-08-25T15:01:01.827Z,13.52
2018-08-25T15:03:29.979Z,13.55
2018-08-25T15:05:58.119Z,13.58
2018-08-25T15:08:26.350Z,13.55
2018-08-25T15:10:54.525Z,13.49
2018-08-25T15:13:22.674Z,13.58
2018-08-25T15:15:50.928Z,13.48
2018-08-25T15:18:19.097Z,13.42
2018-08-25T15:20:47.538Z,13.28
2018-08-25T15:23:16.517Z,13.36
2018-08-25T15:25:44.716Z,13.30
2018-08-25T15:28:12.906Z,13.34
2018-08-25T15:30:41.041Z,13.42
2018-08-25T15:33:10.383Z,13.43
2018-08-25T15:35:38.554Z,13.43
2018-08-25T15:38:06.681Z,13.48
2018-08-25T15:40:34.810Z,13.32
2018-08-25T15:43:02.957Z,13.34
2018-08-25T15:45:31.105Z,13.55
2018-08-25T15:47:59.241Z,13.76
2018-08-25T15:50:27.484Z,13.90
2018-08-25T15:52:55.673Z,14.12
2018-08-25T15:55:23.809Z,14.19
2018-08-25T15:57:52.078Z,14.28
2018-08-25T16:00:20.093Z,14.26
2018-08-25T16:02:48.277Z,14.31
2018-08-25T16:05:16.440Z,14.22
2018-08-25T16:07:45.228Z,14.20
2018-08-25T16:10:13.352Z,14.25
2018-08-25T16:12:41.528Z,14.11
2018-08-25T16:15:09.696Z,14.05
2018-08-25T16:17:37.833Z,13.94
2018-08-25T16:20:06.119Z,13.76
2018-08-25T16:22:34.112Z,13.81
2018-08-25T16:25:02.304Z,13.76
2018-08-25T16:27:30.452Z,13.74
2018-08-25T16:29:58.577Z,13.68
2018-08-25T16:32:26.716Z,13.72
2018-08-25T16:34:54.898Z,13.80
2018-08-25T16:37:23.073Z,13.92
2018-08-25T16:39:51.273Z,14.05
2018-08-25T16:42:19.456Z,14.15
2018-08-25T16:44:47.628Z,14.04
2018-08-25T16:47:15.759Z,14.10
2018-08-25T16:49:43.917Z,13.99
2018-08-25T16:52:12.069Z,13.95
2018-08-25T16:54:40.231Z,13.89
2018-08-25T16:57:08.361Z,13.85
2018-08-25T16:59:36.524Z,13.82
2018-08-25T17:02:04.715Z,13.76
2018-08-25T17:04:32.849Z,13.88
2018-08-25T17:07:00.967Z,13.86
2018-08-25T17:09:29.116Z,13.82
2018-08-25T17:11:57.337Z,13.92
2018-08-25T17:14:25.424Z,13.80
2018-08-25T17:16:53.585Z,13.87
2018-08-25T17:19:21.704Z,13.76
2018-08-25T17:21:49.822Z,13.77
2018-08-25T17:24:17.976Z,13.69
2018-08-25T17:26:46.134Z,13.70
2018-08-25T17:29:14.301Z,13.79
2018-08-25T17:31:42.580Z,13.60
2018-08-25T17:34:10.774Z,13.61
2018-08-25T17:36:38.916Z,13.65
2018-08-25T17:39:09.823Z,13.51
2018-08-25T17:41:38.026Z,13.47
2018-08-25T17:44:06.200Z,13.42
2018-08-25T17:46:34.330Z,13.37
2018-08-25T17:49:02.490Z,13.33
2018-08-25T17:51:30.646Z,13.28
2018-08-25T17:53:58.804Z,13.30
2018-08-25T17:56:26.997Z,13.34
2018-08-25T17:58:55.164Z,13.21
2018-08-25T18:01:23.324Z,13.12
2018-08-25T18:03:51.592Z,13.16
2018-08-25T18:06:19.634Z,13.10
2018-08-25T18:08:47.768Z,13.04
2018-08-25T18:11:15.976Z,12.95
2018-08-25T18:13:44.075Z,12.92
2018-08-25T18:16:12.192Z,12.92
2018-08-25T18:18:40.324Z,12.89
2018-08-25T18:21:08.420Z,12.86
2018-08-25T18:23:36.572Z,12.80
2018-08-25T18:26:04.757Z,12.84
2018-08-25T18:28:32.877Z,12.78
2018-08-25T18:31:01.033Z,12.84
2018-08-25T18:33:29.154Z,12.82
2018-08-25T18:35:57.262Z,12.84
2018-08-25T18:38:25.417Z,12.70
2018-08-25T18:40:53.577Z,12.67
2018-08-25T18:43:21.692Z,12.55
2018-08-25T18:45:49.819Z,12.48
2018-08-25T18:48:18.018Z,12.31
2018-08-25T18:50:46.156Z,12.28
2018-08-25T18:53:14.466Z,12.24
2018-08-25T18:55:42.616Z,12.23
2018-08-25T18:58:10.776Z,12.16
2018-08-25T19:00:38.900Z,12.11
2018-08-25T19:03:07.347Z,12.07
2018-08-25T19:05:35.514Z,12.03
2018-08-25T19:08:03.669Z,12.02
2018-08-25T19:10:31.796Z,12.01
2018-08-25T19:13:00.038Z,11.98
2018-08-25T19:15:28.746Z,11.96
2018-08-25T19:17:56.904Z,11.99
2018-08-25T19:20:25.092Z,11.90
2018-08-25T19:22:53.259Z,11.89
2018-08-25T19:25:21.411Z,11.82
2018-08-25T19:27:49.616Z,11.69
2018-08-25T19:30:17.748Z,11.65
2018-08-25T19:32:45.908Z,11.58
2018-08-25T19:35:14.041Z,11.50
2018-08-25T19:37:42.205Z,11.49
2018-08-25T19:40:10.332Z,11.62
2018-08-25T19:42:38.512Z,11.67
2018-08-25T19:45:06.715Z,11.61
2018-08-25T19:47:34.892Z,11.70
2018-08-25T19:50:03.017Z,11.63
2018-08-25T19:52:31.260Z,11.75
2018-08-25T19:54:59.422Z,11.75
2018-08-25T19:57:27.520Z,11.68
2018-08-25T19:59:55.686Z,11.74
2018-08-25T20:02:23.843Z,11.79
2018-08-25T20:04:51.995Z,11.85
2018-08-25T20:07:20.139Z,11.72
2018-08-25T20:09:48.821Z,11.74
2018-08-25T20:12:16.954Z,11.82
2018-08-25T20:14:45.098Z,11.78
2018-08-25T20:17:13.260Z,11.86
2018-08-25T20:19:41.420Z,11.79
2018-08-25T20:22:10.204Z,11.71
2018-08-25T20:24:38.420Z,11.64
2018-08-25T20:27:06.574Z,11.59
2018-08-25T20:29:34.714Z,11.67
2018-08-25T20:32:02.889Z,11.56
2018-08-25T20:34:31.043Z,11.58
2018-08-25T20:36:59.284Z,11.63
2018-08-25T20:39:27.377Z,11.60
2018-08-25T20:41:55.528Z,11.57
2018-08-25T20:44:23.704Z,11.60
2018-08-25T20:46:51.843Z,11.68
2018-08-25T20:49:19.980Z,11.62
2018-08-25T20:51:48.137Z,11.62
2018-08-25T20:54:16.248Z,11.54
2018-08-25T20:56:44.365Z,11.41
2018-08-25T20:59:12.488Z,11.35
2018-08-25T21:01:40.668Z,11.32
2018-08-25T21:04:08.836Z,11.29
2018-08-25T21:06:36.995Z,11.24
2018-08-25T21:09:07.943Z,11.24
2018-08-25T21:11:36.096Z,11.20
2018-08-25T21:14:04.266Z,11.20
2018-08-25T21:16:32.463Z,11.14
2018-08-25T21:19:00.552Z,11.21
2018-08-25T21:21:28.713Z,11.00
2018-08-25T21:23:56.861Z,11.07
2018-08-25T21:26:25.048Z,11.12
2018-08-25T21:28:53.336Z,11.20
2018-08-25T21:31:21.605Z,11.23
2018-08-25T21:33:49.954Z,11.29
2018-08-25T21:36:18.173Z,11.27
2018-08-25T21:38:46.305Z,11.25
2018-08-25T21:41:14.517Z,11.24
2018-08-25T21:43:42.696Z,11.28
2018-08-25T21:46:10.868Z,11.20
2018-08-25T21:48:39.060Z,11.16
2018-08-25T21:51:07.267Z,11.18
2018-08-25T21:53:35.392Z,11.12
2018-08-25T21:56:03.532Z,11.14
2018-08-25T21:58:31.709Z,11.11
2018-08-25T22:00:59.902Z,11.10
2018-08-25T22:03:28.700Z,11.13
2018-08-25T22:05:57.579Z,11.21
2018-08-25T22:08:25.988Z,11.28
2018-08-25T22:10:54.544Z,11.12
2018-08-25T22:13:22.991Z,11.06
2018-08-25T22:15:51.211Z,11.17
2018-08-25T22:18:19.956Z,11.17
2018-08-25T22:20:48.115Z,11.14
2018-08-25T22:23:16.360Z,11.06
2018-08-25T22:25:44.485Z,11.07
2018-08-25T22:28:12.625Z,10.99
2018-08-25T22:30:40.800Z,10.95
2018-08-25T22:33:08.981Z,11.00
2018-08-25T22:35:37.127Z,10.94
2018-08-25T22:38:05.232Z,10.86
2018-08-25T22:40:33.374Z,10.85
2018-08-25T22:43:01.489Z,10.80
2018-08-25T22:45:29.616Z,10.83
2018-08-25T22:47:57.745Z,10.82
2018-08-25T22:50:25.903Z,10.79
2018-08-25T22:52:54.112Z,10.81
2018-08-25T22:55:23.326Z,10.88
2018-08-25T22:57:51.804Z,10.99
2018-08-25T23:00:20.496Z,10.82
2018-08-25T23:02:48.612Z,10.81
2018-08-25T23:05:16.740Z,10.81
2018-08-25T23:07:44.928Z,10.78
2018-08-25T23:10:13.086Z,10.80
2018-08-25T23:12:41.216Z,10.72
2018-08-25T23:15:09.372Z,10.68
2018-08-25T23:17:37.562Z,10.72
2018-08-25T23:20:05.725Z,10.79
2018-08-25T23:22:33.866Z,10.72
2018-08-25T23:25:02.000Z,10.68
2018-08-25T23:27:30.162Z,10.65
2018-08-25T23:29:58.287Z,10.57
2018-08-25T23:32:26.472Z,10.61
2018-08-25T23:34:54.657Z,10.62
2018-08-25T23:37:22.764Z,10.53
2018-08-25T23:39:50.956Z,10.64
2018-08-25T23:42:19.123Z,10.68
2018-08-25T23:44:47.255Z,10.64
2018-08-25T23:47:15.436Z,10.67
2018-08-25T23:49:43.656Z,10.68
2018-08-25T23:52:11.872Z,10.74
2018-08-25T23:54:40.117Z,10.63
2018-08-25T23:57:08.244Z,10.57
2018-08-25T23:59:36.380Z,10.55
